KNRS

Details ICAO KNRS
Name IMPERIAL BEACH
Region United States
Timezone America/Los_Angeles (UTC-8.0)
Plans Departing 1
Arriving 1
Stats Elevation 24 ft / 7 m (AMSL)
Location 32.566154° -117.112607°
Runways 2
Magnetic Variation 11.477° E
Sunrise 2017-12-16 14:45:08 UTC / 2017-12-16 06:45:08 Local
Sunset 2017-12-17 00:46:07 UTC / 2017-12-16 16:46:07 Local
Advertisement - Login to hide

Runways

ID Width Length Bearing (true) Bearing (mag) Surface Threshold Offset Overrun Length
08 151 ft / 46 m 2,243 ft / 684 m 105.23° 93.75° Concrete 0 ft / 0 m 0 ft / 0 m
09 341 ft / 104 m 4,991 ft / 1,521 m 105.20° 93.72° Concrete 0 ft / 0 m 0 ft / 0 m
26 151 ft / 46 m 2,243 ft / 684 m 285.23° 273.75° Concrete 0 ft / 0 m 0 ft / 0 m
27 341 ft / 104 m 4,991 ft / 1,521 m 285.20° 273.72° Concrete 0 ft / 0 m 0 ft / 0 m

Map

Weather


0- 5 10 15 20 25 30 35+ Temperature / ° C

Clouds and Precipitation
Forecast for 2017-12-16 12:00 UTC. Updated 2 hours ago

Ground ~20,000 ft ~40,000 ft Winds

METAR

KNRS 161256Z AUTO 09007KT 8SM CLR 09/M04 A2980 RMK AO2 SLP092 T00891044 $

TAF

Not found

Frequencies

Tower 120.65 MHz TWR
Warning: Do not use this data for real-world aviation or navigation. No guarantee of current accuracy is given.